createdAt,value
2023-08-09T00:00:33.612Z,87.40
2023-08-09T00:03:01.967Z,87.36
2023-08-09T00:05:29.216Z,87.27
2023-08-09T00:07:56.457Z,87.46
2023-08-09T00:10:23.477Z,87.65
2023-08-09T00:12:51.605Z,87.62
2023-08-09T00:15:19.807Z,87.93
2023-08-09T00:17:46.780Z,87.92
2023-08-09T00:20:13.930Z,88.12
2023-08-09T00:22:42.559Z,88.38
2023-08-09T00:25:12.350Z,88.51
2023-08-09T00:27:39.773Z,88.44
2023-08-09T00:30:09.767Z,88.64
2023-08-09T00:32:38.906Z,88.54
2023-08-09T00:35:06.756Z,88.54
2023-08-09T00:37:34.338Z,88.48
2023-08-09T00:40:01.487Z,88.49
2023-08-09T00:42:28.458Z,88.55
2023-08-09T00:44:55.407Z,88.63
2023-08-09T00:47:22.372Z,88.57
2023-08-09T00:49:49.524Z,88.63
2023-08-09T00:52:21.174Z,88.63
2023-08-09T00:54:49.738Z,88.75
2023-08-09T00:57:17.263Z,88.82
2023-08-09T00:59:44.601Z,88.61
2023-08-09T01:02:11.650Z,88.72
2023-08-09T01:04:42.678Z,88.67
2023-08-09T01:07:27.596Z,88.80
2023-08-09T01:10:08.891Z,88.76
2023-08-09T01:12:40.535Z,88.76
2023-08-09T01:15:10.016Z,88.98
2023-08-09T01:17:38.376Z,88.88
2023-08-09T01:20:08.835Z,89.04
2023-08-09T01:22:37.502Z,88.99
2023-08-09T01:25:08.248Z,89.10
2023-08-09T01:27:37.060Z,89.08
2023-08-09T01:30:07.717Z,89.01
2023-08-09T01:32:35.253Z,89.15
2023-08-09T01:35:02.942Z,89.15
2023-08-09T01:37:42.431Z,89.29
2023-08-09T01:40:12.997Z,89.59
2023-08-09T01:42:41.594Z,89.64
2023-08-09T01:45:11.666Z,89.76
2023-08-09T01:47:39.935Z,89.70
2023-08-09T01:50:08.309Z,89.84
2023-08-09T01:52:35.283Z,89.82
2023-08-09T01:55:02.394Z,89.83
2023-08-09T01:57:29.307Z,89.79
2023-08-09T01:59:56.261Z,90.02
2023-08-09T02:02:23.209Z,89.94
2023-08-09T02:04:50.172Z,90.14
2023-08-09T02:07:17.099Z,90.09
2023-08-09T02:09:44.015Z,90.29
2023-08-09T02:12:11.733Z,90.27
2023-08-09T02:14:38.766Z,90.38
2023-08-09T02:17:07.407Z,90.37
2023-08-09T02:19:34.318Z,90.34
2023-08-09T02:22:01.295Z,90.40
2023-08-09T02:24:28.387Z,90.56
2023-08-09T02:26:55.360Z,90.76
2023-08-09T02:29:22.306Z,90.68
2023-08-09T02:31:49.216Z,90.58
2023-08-09T02:34:20.570Z,90.75
2023-08-09T02:36:48.002Z,90.89
2023-08-09T02:39:14.954Z,90.92
2023-08-09T02:41:43.887Z,90.99
2023-08-09T02:44:11.085Z,91.18
2023-08-09T02:46:38.078Z,91.01
2023-08-09T02:49:05.929Z,91.06
2023-08-09T02:51:33.904Z,91.16
2023-08-09T02:54:06.466Z,91.26
2023-08-09T02:56:34.949Z,91.39
2023-08-09T02:59:02.129Z,91.56
2023-08-09T03:01:30.762Z,91.31
2023-08-09T03:03:58.084Z,91.45
2023-08-09T03:06:26.043Z,91.50
2023-08-09T03:08:54.243Z,91.48
2023-08-09T03:11:25.694Z,91.50
2023-08-09T03:13:53.387Z,91.92
2023-08-09T03:16:22.082Z,91.85
2023-08-09T03:18:49.137Z,91.81
2023-08-09T03:21:16.206Z,91.93
2023-08-09T03:23:43.255Z,92.05
2023-08-09T03:26:10.305Z,92.06
2023-08-09T03:28:38.574Z,92.31
2023-08-09T03:31:05.546Z,92.30
2023-08-09T03:33:32.426Z,92.29
2023-08-09T03:35:59.352Z,92.31
2023-08-09T03:38:26.302Z,92.23
2023-08-09T03:40:53.332Z,92.41
2023-08-09T03:43:20.261Z,92.27
2023-08-09T03:45:47.307Z,92.23
2023-08-09T03:48:14.346Z,92.33
2023-08-09T03:50:41.368Z,92.43
2023-08-09T03:53:08.327Z,92.67
2023-08-09T03:55:35.278Z,92.44
2023-08-09T03:58:02.298Z,92.38
2023-08-09T04:00:29.297Z,92.46
2023-08-09T04:02:56.381Z,92.74
2023-08-09T04:05:24.088Z,92.71
2023-08-09T04:07:51.185Z,92.70
2023-08-09T04:10:18.473Z,92.86
2023-08-09T04:12:45.755Z,92.93
2023-08-09T04:15:12.973Z,92.84
2023-08-09T04:17:40.558Z,92.97
2023-08-09T04:20:11.124Z,93.08
2023-08-09T04:22:38.104Z,93.16
2023-08-09T04:25:06.274Z,93.28
2023-08-09T04:27:34.700Z,93.31
2023-08-09T04:30:06.127Z,93.40
2023-08-09T04:32:33.737Z,93.45
2023-08-09T04:35:00.680Z,93.45
2023-08-09T04:37:28.579Z,93.49
2023-08-09T04:39:55.560Z,93.55
2023-08-09T04:42:22.956Z,93.78
2023-08-09T04:44:50.329Z,93.76
2023-08-09T04:47:17.391Z,93.91
2023-08-09T04:49:44.326Z,94.00
2023-08-09T04:52:11.266Z,94.01
2023-08-09T04:54:38.181Z,94.30
2023-08-09T04:57:05.600Z,94.12
2023-08-09T04:59:32.837Z,94.35
2023-08-09T05:02:00.201Z,94.42
2023-08-09T05:04:27.490Z,94.42
2023-08-09T05:06:54.626Z,94.27
2023-08-09T05:09:21.636Z,93.97
2023-08-09T05:11:48.562Z,94.02
2023-08-09T05:14:15.656Z,94.06
2023-08-09T05:16:43.054Z,94.08
2023-08-09T05:19:10.079Z,93.73
2023-08-09T05:21:37.033Z,93.30
2023-08-09T05:24:04.546Z,93.03
2023-08-09T05:26:31.452Z,92.97
2023-08-09T05:28:58.414Z,92.93
2023-08-09T05:31:25.317Z,92.63
2023-08-09T05:33:52.311Z,92.56
2023-08-09T05:36:19.290Z,92.45
2023-08-09T05:38:46.262Z,92.31
2023-08-09T05:41:13.936Z,92.12
2023-08-09T05:43:41.012Z,91.84
2023-08-09T05:46:08.122Z,91.46
2023-08-09T05:48:35.389Z,91.02
2023-08-09T05:51:02.477Z,89.93
2023-08-09T05:53:29.534Z,89.20
2023-08-09T05:55:56.487Z,88.11
2023-08-09T05:58:23.503Z,86.35
2023-08-09T06:00:50.637Z,84.91
2023-08-09T06:03:17.983Z,83.52
2023-08-09T06:05:45.091Z,82.07
2023-08-09T06:08:12.160Z,81.34
2023-08-09T06:10:39.174Z,80.37
2023-08-09T06:13:06.645Z,79.98
2023-08-09T06:15:33.603Z,79.58
2023-08-09T06:18:00.718Z,78.99
2023-08-09T06:20:29.325Z,78.75
2023-08-09T06:22:56.379Z,78.09
2023-08-09T06:25:23.555Z,77.12
2023-08-09T06:27:51.835Z,76.94
2023-08-09T06:30:18.816Z,77.31
2023-08-09T06:32:46.025Z,76.45
2023-08-09T06:35:13.113Z,76.11
2023-08-09T06:37:40.135Z,75.58
2023-08-09T06:40:08.795Z,75.20
2023-08-09T06:42:35.824Z,75.11
2023-08-09T06:45:07.020Z,74.56
2023-08-09T06:47:34.396Z,74.09
2023-08-09T06:50:02.246Z,73.96
2023-08-09T06:52:29.304Z,73.28
2023-08-09T06:54:57.559Z,72.27
2023-08-09T06:57:26.138Z,72.01
2023-08-09T06:59:53.709Z,71.89
2023-08-09T07:02:22.043Z,70.98
2023-08-09T07:04:54.151Z,70.51
2023-08-09T07:07:23.339Z,69.44
2023-08-09T07:09:50.661Z,68.86
2023-08-09T07:12:17.776Z,68.19
2023-08-09T07:14:44.798Z,67.26
2023-08-09T07:17:11.759Z,66.98
2023-08-09T07:19:38.856Z,66.37
2023-08-09T07:22:06.157Z,66.08
2023-08-09T07:24:33.391Z,65.95
2023-08-09T07:27:00.705Z,65.75
2023-08-09T07:29:27.473Z,66.09
2023-08-09T07:31:54.830Z,66.71
2023-08-09T07:34:22.304Z,66.68
2023-08-09T07:36:49.396Z,66.36
2023-08-09T07:39:16.443Z,65.54
2023-08-09T07:41:43.159Z,64.61
2023-08-09T07:44:09.927Z,62.81
2023-08-09T07:46:37.088Z,61.34
2023-08-09T07:49:04.461Z,61.62
2023-08-09T07:51:31.469Z,60.75
2023-08-09T07:53:59.259Z,61.45
2023-08-09T07:56:26.498Z,61.23
2023-08-09T07:58:55.185Z,61.04
2023-08-09T08:01:22.516Z,61.34
2023-08-09T08:03:50.083Z,61.54
2023-08-09T08:06:19.098Z,60.58
2023-08-09T08:08:46.910Z,59.81
2023-08-09T08:11:13.942Z,60.03
2023-08-09T08:13:40.961Z,59.55
2023-08-09T08:16:08.053Z,58.32
2023-08-09T08:18:35.183Z,58.02
2023-08-09T08:21:03.219Z,57.39
2023-08-09T08:23:31.897Z,57.09
2023-08-09T08:25:59.442Z,56.75
2023-08-09T08:28:26.752Z,55.65
2023-08-09T08:30:53.863Z,55.35
2023-08-09T08:33:21.345Z,55.83
2023-08-09T08:35:55.651Z,55.50
2023-08-09T08:38:31.282Z,55.31
2023-08-09T08:40:58.321Z,55.52
2023-08-09T08:43:25.397Z,55.09
2023-08-09T08:45:54.518Z,54.88
2023-08-09T08:48:21.614Z,54.47
2023-08-09T08:50:50.000Z,55.06
2023-08-09T08:53:17.689Z,55.10
2023-08-09T08:55:44.690Z,54.53
2023-08-09T08:58:14.112Z,53.85
2023-08-09T09:00:40.992Z,53.86
2023-08-09T09:03:08.080Z,53.69
2023-08-09T09:05:35.715Z,53.49
2023-08-09T09:08:04.369Z,53.85
2023-08-09T09:10:31.468Z,53.16
2023-08-09T09:12:58.287Z,52.65
2023-08-09T09:15:26.662Z,52.30
2023-08-09T09:17:54.692Z,52.35
2023-08-09T09:20:31.371Z,52.19
2023-08-09T09:22:58.775Z,52.20
2023-08-09T09:25:25.930Z,52.16
2023-08-09T09:27:57.871Z,51.74
2023-08-09T09:30:26.570Z,51.25
2023-08-09T09:32:53.565Z,51.55
2023-08-09T09:35:21.898Z,50.66
2023-08-09T09:37:49.540Z,51.07
2023-08-09T09:40:27.911Z,50.94
2023-08-09T09:42:56.026Z,50.58
2023-08-09T09:45:25.234Z,49.91
2023-08-09T09:47:54.001Z,49.71
2023-08-09T09:50:24.109Z,49.93
2023-08-09T09:52:52.598Z,50.11
2023-08-09T09:55:22.005Z,49.59
2023-08-09T09:57:49.085Z,49.78
2023-08-09T10:00:16.547Z,49.09
2023-08-09T10:02:43.313Z,48.75
2023-08-09T10:05:13.742Z,48.71
2023-08-09T10:07:44.908Z,48.42
2023-08-09T10:10:14.413Z,48.29
2023-08-09T10:12:56.124Z,48.54
2023-08-09T10:15:30.526Z,49.31
2023-08-09T10:18:04.679Z,49.35
2023-08-09T10:20:33.772Z,48.82
2023-08-09T10:23:02.197Z,48.89
2023-08-09T10:25:46.129Z,48.69
2023-08-09T10:28:13.022Z,48.98
2023-08-09T10:30:53.432Z,49.29
2023-08-09T10:33:20.852Z,49.58
2023-08-09T10:35:52.412Z,49.59
2023-08-09T10:38:48.991Z,49.66
2023-08-09T10:41:16.434Z,50.14
2023-08-09T10:43:43.525Z,50.05
2023-08-09T10:46:27.933Z,49.86
2023-08-09T10:48:59.890Z,49.50
2023-08-09T10:51:27.260Z,49.49
2023-08-09T10:54:07.889Z,49.65
2023-08-09T10:56:47.928Z,49.35
2023-08-09T10:59:23.015Z,49.91
2023-08-09T11:01:52.012Z,50.54
2023-08-09T11:04:19.224Z,49.53
2023-08-09T11:06:49.201Z,49.45
2023-08-09T11:09:22.511Z,49.88
2023-08-09T11:11:52.076Z,50.06
2023-08-09T11:14:22.132Z,49.44
2023-08-09T11:16:50.518Z,49.17
2023-08-09T11:19:34.070Z,49.64
2023-08-09T11:22:03.400Z,50.14
2023-08-09T11:24:31.306Z,50.93
2023-08-09T11:27:00.650Z,51.30
2023-08-09T11:29:29.019Z,51.88
2023-08-09T11:31:59.471Z,53.35
2023-08-09T11:34:27.502Z,54.33
2023-08-09T11:36:57.489Z,55.53
2023-08-09T11:39:26.861Z,55.96
2023-08-09T11:41:56.601Z,56.13
2023-08-09T11:44:28.688Z,57.38
2023-08-09T11:46:56.934Z,58.83
2023-08-09T11:49:27.988Z,59.52
2023-08-09T11:51:56.043Z,59.30
2023-08-09T11:54:23.478Z,59.63
2023-08-09T11:56:52.496Z,59.11
2023-08-09T11:59:21.445Z,58.41
2023-08-09T12:01:55.213Z,58.55
2023-08-09T12:04:24.327Z,58.48
2023-08-09T12:06:58.003Z,58.37
2023-08-09T12:09:39.044Z,58.03
2023-08-09T12:12:20.097Z,57.64
2023-08-09T12:14:49.838Z,56.89
2023-08-09T12:17:22.692Z,57.20
2023-08-09T12:19:51.932Z,56.70
2023-08-09T12:22:18.979Z,56.56
2023-08-09T12:24:45.975Z,56.24
2023-08-09T12:27:13.161Z,56.52
2023-08-09T12:29:40.338Z,56.24
2023-08-09T12:32:07.448Z,56.16
2023-08-09T12:34:34.988Z,56.50
2023-08-09T12:37:02.169Z,56.63
2023-08-09T12:39:29.169Z,57.15
2023-08-09T12:41:56.922Z,57.40
2023-08-09T12:44:25.211Z,57.33
2023-08-09T12:46:52.473Z,57.83
2023-08-09T12:49:19.606Z,58.42
2023-08-09T12:51:46.856Z,59.02
2023-08-09T12:54:13.961Z,59.75
2023-08-09T12:56:41.046Z,60.34
2023-08-09T12:59:08.140Z,60.76
2023-08-09T13:01:36.248Z,61.11
2023-08-09T13:04:04.830Z,61.49
2023-08-09T13:06:31.814Z,61.45
2023-08-09T13:09:01.484Z,61.45
2023-08-09T13:11:28.757Z,61.35
2023-08-09T13:13:55.873Z,61.19
2023-08-09T13:16:23.033Z,61.43
2023-08-09T13:18:50.116Z,61.55
2023-08-09T13:21:18.835Z,61.38
2023-08-09T13:23:46.584Z,61.79
2023-08-09T13:26:14.267Z,61.72
2023-08-09T13:28:43.301Z,61.82
2023-08-09T13:31:10.113Z,61.83
2023-08-09T13:33:40.010Z,61.42
2023-08-09T13:36:07.837Z,61.21
2023-08-09T13:38:40.841Z,61.52
2023-08-09T13:41:08.728Z,61.45
2023-08-09T13:43:36.354Z,61.89
2023-08-09T13:46:05.142Z,61.61
2023-08-09T13:48:32.565Z,62.08
2023-08-09T13:50:59.302Z,62.11
2023-08-09T13:53:26.086Z,62.28
2023-08-09T13:55:53.166Z,62.74
2023-08-09T13:58:20.504Z,62.97
2023-08-09T14:00:50.394Z,62.73
2023-08-09T14:03:18.077Z,62.91
2023-08-09T14:05:45.133Z,62.87
2023-08-09T14:08:12.363Z,62.78
2023-08-09T14:10:42.404Z,62.51
2023-08-09T14:13:09.458Z,62.49
2023-08-09T14:15:37.067Z,62.64
2023-08-09T14:18:07.012Z,62.84
2023-08-09T14:20:36.607Z,63.01
2023-08-09T14:23:04.270Z,63.14
2023-08-09T14:25:31.181Z,63.19
2023-08-09T14:27:58.201Z,63.14
2023-08-09T14:30:25.207Z,63.16
2023-08-09T14:32:52.486Z,63.29
2023-08-09T14:35:21.513Z,63.46
2023-08-09T14:37:48.752Z,63.89
2023-08-09T14:40:15.945Z,63.94
2023-08-09T14:42:43.020Z,63.86
2023-08-09T14:45:12.027Z,63.78
2023-08-09T14:47:40.201Z,63.87
2023-08-09T14:50:08.465Z,63.95
2023-08-09T14:52:35.293Z,64.19
2023-08-09T14:55:02.286Z,64.35
2023-08-09T14:57:29.077Z,64.33
2023-08-09T14:59:56.062Z,64.66
2023-08-09T15:02:22.933Z,64.81
2023-08-09T15:04:50.545Z,64.89
2023-08-09T15:07:17.607Z,64.86
2023-08-09T15:09:45.057Z,65.29
2023-08-09T15:12:14.679Z,65.61
2023-08-09T15:14:44.831Z,66.04
2023-08-09T15:19:42.277Z,66.65
2023-08-09T15:22:09.111Z,66.72
2023-08-09T15:24:35.908Z,67.03
2023-08-09T15:27:02.945Z,67.17
2023-08-09T15:29:29.928Z,67.38
2023-08-09T15:31:56.671Z,67.68
2023-08-09T15:34:23.701Z,67.50
2023-08-09T15:36:51.308Z,67.07
2023-08-09T15:39:18.059Z,66.90
2023-08-09T15:41:44.878Z,66.82
2023-08-09T15:44:12.553Z,66.61
2023-08-09T15:46:40.827Z,66.69
2023-08-09T15:49:08.183Z,66.63
2023-08-09T15:51:35.401Z,66.75
2023-08-09T15:54:02.876Z,66.92
2023-08-09T15:56:29.771Z,66.91
2023-08-09T15:58:56.767Z,66.68
2023-08-09T16:01:23.821Z,66.48
2023-08-09T16:03:50.815Z,65.99
2023-08-09T16:06:17.798Z,65.73
2023-08-09T16:08:45.232Z,65.53
2023-08-09T16:11:12.144Z,65.02
2023-08-09T16:13:39.028Z,65.08
2023-08-09T16:16:11.650Z,65.13
2023-08-09T16:18:44.102Z,64.95
2023-08-09T16:21:11.741Z,64.87
2023-08-09T16:23:38.482Z,64.90
2023-08-09T16:26:05.770Z,64.62
2023-08-09T16:28:32.582Z,64.86
2023-08-09T16:30:59.392Z,64.43
2023-08-09T16:33:26.268Z,64.55
2023-08-09T16:35:53.077Z,64.02
2023-08-09T16:38:19.867Z,64.06
2023-08-09T16:40:46.977Z,64.52
2023-08-09T16:43:13.815Z,64.24
2023-08-09T16:45:40.689Z,63.82
2023-08-09T16:48:07.833Z,63.35
2023-08-09T16:50:35.847Z,63.54
2023-08-09T16:53:02.956Z,63.72
2023-08-09T16:55:30.214Z,63.80
2023-08-09T16:57:57.290Z,63.99
2023-08-09T17:00:24.236Z,64.60
2023-08-09T17:02:51.230Z,64.81
2023-08-09T17:05:22.604Z,64.63
2023-08-09T17:07:49.412Z,64.09
2023-08-09T17:10:16.357Z,64.43
2023-08-09T17:12:43.196Z,64.63
2023-08-09T17:15:10.345Z,64.92
2023-08-09T17:17:37.178Z,65.38
2023-08-09T17:20:05.859Z,65.96
2023-08-09T17:22:32.786Z,66.57
2023-08-09T17:24:59.726Z,66.78
2023-08-09T17:27:26.542Z,67.38
2023-08-09T17:29:53.791Z,68.13
2023-08-09T17:32:21.321Z,68.58
2023-08-09T17:34:48.443Z,69.28
2023-08-09T17:37:15.248Z,69.94
2023-08-09T17:39:43.683Z,70.38
2023-08-09T17:42:10.610Z,70.98
2023-08-09T17:44:38.001Z,70.95
2023-08-09T17:47:05.340Z,70.98
2023-08-09T17:49:32.489Z,71.20
2023-08-09T17:52:01.375Z,71.99
2023-08-09T17:54:28.248Z,72.55
2023-08-09T17:56:54.950Z,72.58
2023-08-09T17:59:21.759Z,72.91
2023-08-09T18:01:48.634Z,73.19
2023-08-09T18:04:15.618Z,73.74
2023-08-09T18:06:42.808Z,73.96
2023-08-09T18:09:10.266Z,74.42
2023-08-09T18:11:38.296Z,74.31
2023-08-09T18:14:05.241Z,74.64
2023-08-09T18:16:32.634Z,74.96
2023-08-09T18:18:59.558Z,75.11
2023-08-09T18:21:29.520Z,75.31
2023-08-09T18:23:57.509Z,75.10
2023-08-09T18:26:25.296Z,75.20
2023-08-09T18:28:53.049Z,75.36
2023-08-09T18:31:23.913Z,75.75
2023-08-09T18:33:51.964Z,76.05
2023-08-09T18:36:19.354Z,76.10
2023-08-09T18:38:46.371Z,76.44
2023-08-09T18:41:13.563Z,76.61
2023-08-09T18:43:42.842Z,76.77
2023-08-09T18:46:09.923Z,76.91
2023-08-09T18:48:36.837Z,77.27
2023-08-09T18:51:05.832Z,77.53
2023-08-09T18:53:32.662Z,77.48
2023-08-09T18:55:59.492Z,77.74
2023-08-09T18:58:26.409Z,77.81
2023-08-09T19:00:53.221Z,77.99
2023-08-09T19:03:20.621Z,78.09
2023-08-09T19:05:47.614Z,78.27
2023-08-09T19:08:14.496Z,78.28
2023-08-09T19:10:41.544Z,78.54
2023-08-09T19:13:08.425Z,78.72
2023-08-09T19:15:37.739Z,79.03
2023-08-09T19:18:06.192Z,79.25
2023-08-09T19:20:33.101Z,79.15
2023-08-09T19:23:01.018Z,79.43
2023-08-09T19:25:30.746Z,79.28
2023-08-09T19:27:59.512Z,79.39
2023-08-09T19:30:28.718Z,79.61
2023-08-09T19:32:55.639Z,79.21
2023-08-09T19:35:22.441Z,79.14
2023-08-09T19:37:49.777Z,78.92
2023-08-09T19:40:16.690Z,78.48
2023-08-09T19:42:43.759Z,78.36
2023-08-09T19:45:10.963Z,78.13
2023-08-09T19:47:37.768Z,78.01
2023-08-09T19:50:05.534Z,78.01
2023-08-09T19:52:32.372Z,77.88
2023-08-09T19:54:59.293Z,77.81
2023-08-09T19:57:26.367Z,77.82
2023-08-09T19:59:53.988Z,77.50
2023-08-09T20:02:20.768Z,77.39
2023-08-09T20:04:47.626Z,77.39
2023-08-09T20:07:17.291Z,77.31
2023-08-09T20:09:44.083Z,76.93
2023-08-09T20:12:10.986Z,76.84
2023-08-09T20:14:37.772Z,76.89
2023-08-09T20:17:05.402Z,76.55
2023-08-09T20:19:32.926Z,76.39
2023-08-09T20:21:59.700Z,75.94
2023-08-09T20:24:41.641Z,75.77
2023-08-09T20:27:10.174Z,75.40
2023-08-09T20:29:37.585Z,75.29
2023-08-09T20:32:06.024Z,75.12
2023-08-09T20:34:33.750Z,75.22
2023-08-09T20:37:01.606Z,74.82
2023-08-09T20:39:28.586Z,74.81
2023-08-09T20:41:55.333Z,74.84
2023-08-09T20:44:22.091Z,74.20
2023-08-09T20:46:49.101Z,73.99
2023-08-09T20:49:16.169Z,73.98
2023-08-09T20:51:43.147Z,73.75
2023-08-09T20:54:10.008Z,73.64
2023-08-09T20:56:36.858Z,74.02
2023-08-09T20:59:04.837Z,73.73
2023-08-09T21:01:32.763Z,74.30
2023-08-09T21:04:00.729Z,74.51
2023-08-09T21:06:28.311Z,75.08
2023-08-09T21:08:55.720Z,75.61
2023-08-09T21:11:22.996Z,76.44
2023-08-09T21:13:50.122Z,77.08
2023-08-09T21:16:16.976Z,77.57
2023-08-09T21:18:45.530Z,78.07
2023-08-09T21:21:14.102Z,78.49
2023-08-09T21:26:11.459Z,78.98
2023-08-09T21:28:46.743Z,79.26
2023-08-09T21:31:15.904Z,79.56
2023-08-09T21:33:42.733Z,79.71
2023-08-09T21:36:09.577Z,80.27
2023-08-09T21:38:36.778Z,80.39
2023-08-09T21:41:03.641Z,80.39
2023-08-09T21:43:30.542Z,80.48
2023-08-09T21:45:57.495Z,80.66
2023-08-09T21:48:24.618Z,81.04
2023-08-09T21:50:52.950Z,81.32
2023-08-09T21:53:23.099Z,81.45
2023-08-09T21:55:50.082Z,81.57
2023-08-09T21:58:16.892Z,81.65
2023-08-09T22:00:43.614Z,81.63
2023-08-09T22:03:10.617Z,82.06
2023-08-09T22:05:37.910Z,81.84
2023-08-09T22:08:06.046Z,82.11
2023-08-09T22:10:33.013Z,82.08
2023-08-09T22:13:00.177Z,82.32
2023-08-09T22:15:27.347Z,82.70
2023-08-09T22:17:54.800Z,82.62
2023-08-09T22:20:21.757Z,82.66
2023-08-09T22:22:49.049Z,82.92
2023-08-09T22:25:16.446Z,82.80
2023-08-09T22:27:43.331Z,82.97
2023-08-09T22:30:11.502Z,83.09
2023-08-09T22:32:39.904Z,83.55
2023-08-09T22:35:10.109Z,83.40
2023-08-09T22:37:36.943Z,83.53
2023-08-09T22:40:08.073Z,83.57
2023-08-09T22:42:34.950Z,83.73
2023-08-09T22:45:01.880Z,83.95
2023-08-09T22:47:28.649Z,83.80
2023-08-09T22:49:55.799Z,83.96
2023-08-09T22:52:22.543Z,84.07
2023-08-09T22:54:49.347Z,84.04
2023-08-09T22:57:16.183Z,84.18
2023-08-09T22:59:43.009Z,84.27
2023-08-09T23:02:09.854Z,84.52
2023-08-09T23:04:36.731Z,84.56
2023-08-09T23:07:03.575Z,84.76
2023-08-09T23:09:30.605Z,84.69
2023-08-09T23:11:57.835Z,84.97
2023-08-09T23:14:24.556Z,84.90
2023-08-09T23:16:51.299Z,84.75
2023-08-09T23:19:18.095Z,85.04
2023-08-09T23:21:45.267Z,85.14
2023-08-09T23:24:12.583Z,85.09
2023-08-09T23:26:43.006Z,85.32
2023-08-09T23:29:09.903Z,85.38
2023-08-09T23:31:36.955Z,85.48
2023-08-09T23:34:03.958Z,85.60
2023-08-09T23:36:30.933Z,85.99
2023-08-09T23:38:59.087Z,86.03
2023-08-09T23:41:26.081Z,85.90
2023-08-09T23:43:52.799Z,86.09
2023-08-09T23:46:19.682Z,86.20
2023-08-09T23:48:46.552Z,86.20
2023-08-09T23:51:13.279Z,86.27
2023-08-09T23:53:41.208Z,86.41
2023-08-09T23:56:08.716Z,86.56
2023-08-09T23:58:35.439Z,86.58
